Time;durP1;ratioP1;P1;durP2;ratioP2;P2;SDS_P1;SDS_P2;PMS_P1;PMS_P2;Temp;Humidity;BMP_temperature;BMP_pressure;BME280_temperature;BME280_humidity;BME280_pressure;Samples;Min_cycle;Max_cycle;Signal;HPM_P1;HPM_P2
2022/07/11 00:00:49;;;;;;;6.03;1.50;;;;;;;;;;6273785;28;20057;-73
2022/07/11 00:03:50;;;;;;;5.25;1.70;;;;;;;;;;6279723;28;20060;-72
2022/07/11 00:06:52;;;;;;;4.75;1.42;;;;;;;;;;6273841;28;20044;-71
2022/07/11 00:09:54;;;;;;;3.03;1.33;;;;;;;;;;6273523;28;20100;-74
2022/07/11 00:12:56;;;;;;;6.40;2.65;;;;;;;;;;6277631;28;20052;-70
2022/07/11 00:15:59;;;;;;;2.88;1.30;;;;;;;;;;6278254;28;20280;-71
2022/07/11 00:19:00;;;;;;;2.00;1.38;;;;;;;;;;6273567;28;20045;-70
2022/07/11 00:22:02;;;;;;;6.57;1.50;;;;;;;;;;6282258;28;20056;-75
2022/07/11 00:25:04;;;;;;;2.72;1.40;;;;;;;;;;6276736;28;20041;-71
2022/07/11 00:28:06;;;;;;;4.60;1.27;;;;;;;;;;6274603;28;20075;-72
2022/07/11 00:31:10;;;;;;;4.15;1.58;;;;;;;;;;6276259;28;20213;-72
2022/07/11 00:34:11;;;;;;;2.05;1.13;;;;;;;;;;6282822;28;20056;-72
2022/07/11 00:37:13;;;;;;;5.88;1.23;;;;;;;;;;6281602;28;20056;-71
2022/07/11 00:40:15;;;;;;;3.80;1.38;;;;;;;;;;6274899;28;20275;-71
2022/07/11 00:43:19;;;;;;;2.55;1.27;;;;;;;;;;6279406;28;20328;-70
2022/07/11 00:46:22;;;;;;;5.85;1.42;;;;;;;;;;6281996;28;20055;-70
2022/07/11 00:49:24;;;;;;;3.50;1.15;;;;;;;;;;6278512;28;20105;-75
2022/07/11 00:52:26;;;;;;;6.38;1.88;;;;;;;;;;6279779;28;20041;-71
2022/07/11 00:55:28;;;;;;;2.23;1.20;;;;;;;;;;6273317;28;20609;-70
2022/07/11 00:58:30;;;;;;;2.03;1.05;;;;;;;;;;6282243;28;20052;-70
2022/07/11 01:01:34;;;;;;;3.72;1.08;;;;;;;;;;6279804;28;20053;-71
2022/07/11 01:04:36;;;;;;;5.80;1.30;;;;;;;;;;6284997;28;20091;-72
2022/07/11 01:07:39;;;;;;;2.47;0.90;;;;;;;;;;6284726;28;20049;-72
2022/07/11 01:10:41;;;;;;;2.88;0.90;;;;;;;;;;6289372;28;20098;-71
2022/07/11 01:13:43;;;;;;;2.70;1.20;;;;;;;;;;6284735;28;20044;-72
2022/07/11 01:16:46;;;;;;;5.17;1.00;;;;;;;;;;6287249;28;20045;-72
2022/07/11 01:19:48;;;;;;;3.35;1.20;;;;;;;;;;6287950;28;20515;-70
2022/07/11 01:22:53;;;;;;;4.03;1.48;;;;;;;;;;6286700;28;20045;-71
2022/07/11 01:25:56;;;;;;;2.17;1.30;;;;;;;;;;6292733;28;20041;-70
2022/07/11 01:29:06;;;;;;;2.13;0.80;;;;;;;;;;6289937;28;20049;-71
2022/07/11 01:32:08;;;;;;;3.13;0.90;;;;;;;;;;6279267;28;20651;-71
2022/07/11 01:35:10;;;;;;;4.05;1.08;;;;;;;;;;6285489;28;20045;-71
2022/07/11 01:38:11;;;;;;;4.97;1.05;;;;;;;;;;6284580;28;20087;-71
2022/07/11 01:41:14;;;;;;;2.72;1.25;;;;;;;;;;6283444;28;20044;-70
2022/07/11 01:44:16;;;;;;;4.68;1.10;;;;;;;;;;6281870;28;20068;-70
2022/07/11 01:47:18;;;;;;;3.65;0.90;;;;;;;;;;6283797;28;20059;-72
2022/07/11 01:50:19;;;;;;;1.42;1.00;;;;;;;;;;6282391;28;20060;-71
2022/07/11 01:53:21;;;;;;;2.00;1.10;;;;;;;;;;6283950;28;20052;-70
2022/07/11 01:56:27;;;;;;;4.55;1.00;;;;;;;;;;6284898;28;20045;-70
2022/07/11 01:59:28;;;;;;;5.18;1.40;;;;;;;;;;6282271;28;20057;-70
2022/07/11 02:02:30;;;;;;;2.67;1.17;;;;;;;;;;6283396;28;20052;-70
2022/07/11 02:05:32;;;;;;;4.03;0.80;;;;;;;;;;6282077;28;20057;-71
2022/07/11 02:08:33;;;;;;;3.60;1.15;;;;;;;;;;6276833;28;20044;-71
2022/07/11 02:11:36;;;;;;;2.60;1.00;;;;;;;;;;6283533;28;20378;-72
2022/07/11 02:14:38;;;;;;;1.25;0.73;;;;;;;;;;6280052;28;20049;-71
2022/07/11 02:17:40;;;;;;;1.67;0.85;;;;;;;;;;6282245;28;20049;-70
2022/07/11 02:20:42;;;;;;;1.63;0.80;;;;;;;;;;6283198;28;20255;-73
2022/07/11 02:23:44;;;;;;;3.65;1.10;;;;;;;;;;6281812;28;20045;-72
2022/07/11 02:26:47;;;;;;;3.45;1.20;;;;;;;;;;6282722;28;20049;-72
2022/07/11 02:29:49;;;;;;;3.88;0.93;;;;;;;;;;6277367;28;20061;-72
2022/07/11 02:32:51;;;;;;;1.65;0.80;;;;;;;;;;6280670;28;20055;-71
2022/07/11 02:35:53;;;;;;;6.32;0.80;;;;;;;;;;6284734;28;20102;-71
2022/07/11 02:38:54;;;;;;;2.30;1.05;;;;;;;;;;6282348;28;20248;-72
2022/07/11 02:41:57;;;;;;;5.28;1.05;;;;;;;;;;6279779;28;20106;-74
2022/07/11 02:44:59;;;;;;;3.03;0.80;;;;;;;;;;6277062;28;20061;-71
2022/07/11 02:48:01;;;;;;;2.00;0.90;;;;;;;;;;6286788;28;20067;-71
2022/07/11 02:51:02;;;;;;;6.47;1.15;;;;;;;;;;6282886;28;20045;-71
2022/07/11 02:54:04;;;;;;;2.47;1.10;;;;;;;;;;6283849;28;20045;-73
2022/07/11 02:57:07;;;;;;;4.38;0.98;;;;;;;;;;6289020;28;20096;-71
2022/07/11 03:00:11;;;;;;;5.15;1.30;;;;;;;;;;6284668;28;20041;-71
2022/07/11 03:03:12;;;;;;;2.47;1.20;;;;;;;;;;6286138;28;20041;-72
2022/07/11 03:06:14;;;;;;;6.50;1.40;;;;;;;;;;6285987;28;20040;-73
2022/07/11 03:09:16;;;;;;;2.90;1.17;;;;;;;;;;6283309;28;20053;-71
2022/07/11 03:12:19;;;;;;;1.77;1.15;;;;;;;;;;6282456;28;20354;-71
2022/07/11 03:15:21;;;;;;;3.20;1.10;;;;;;;;;;6280243;28;20114;-71
2022/07/11 03:18:23;;;;;;;3.08;1.00;;;;;;;;;;6283483;28;20087;-71
2022/07/11 03:21:25;;;;;;;3.58;0.90;;;;;;;;;;6282396;28;20087;-71
2022/07/11 03:24:27;;;;;;;3.05;1.30;;;;;;;;;;6279634;28;20068;-72
2022/07/11 03:27:30;;;;;;;3.72;0.80;;;;;;;;;;6283115;28;20045;-73
2022/07/11 03:30:31;;;;;;;3.08;1.58;;;;;;;;;;6281683;28;20041;-70
2022/07/11 03:33:33;;;;;;;2.13;1.13;;;;;;;;;;6276122;28;20444;-70
2022/07/11 03:36:34;;;;;;;2.10;1.13;;;;;;;;;;6285535;28;20048;-71
2022/07/11 03:39:36;;;;;;;1.77;1.00;;;;;;;;;;6281870;28;20045;-70
2022/07/11 03:42:39;;;;;;;4.25;1.25;;;;;;;;;;6282535;28;20051;-71
2022/07/11 03:45:41;;;;;;;3.72;1.13;;;;;;;;;;6279961;28;20064;-70
2022/07/11 03:48:44;;;;;;;3.72;0.90;;;;;;;;;;6279240;28;20045;-72
2022/07/11 03:51:45;;;;;;;3.15;1.00;;;;;;;;;;6282245;28;20108;-70
2022/07/11 03:54:47;;;;;;;2.63;0.90;;;;;;;;;;6276170;28;20060;-72
2022/07/11 03:57:50;;;;;;;3.25;1.23;;;;;;;;;;6275889;28;20726;-70
2022/07/11 04:00:52;;;;;;;3.15;1.30;;;;;;;;;;6281528;28;20087;-70
2022/07/11 04:03:53;;;;;;;2.65;1.27;;;;;;;;;;6275779;28;20060;-70
2022/07/11 04:06:55;;;;;;;1.85;1.00;;;;;;;;;;6283235;28;20045;-71
2022/07/11 04:09:57;;;;;;;2.95;1.30;;;;;;;;;;6281040;28;20049;-71
2022/07/11 04:13:00;;;;;;;2.28;1.13;;;;;;;;;;6280734;28;20052;-77
2022/07/11 04:16:02;;;;;;;5.85;1.20;;;;;;;;;;6275532;28;20405;-75
2022/07/11 04:19:04;;;;;;;2.53;0.90;;;;;;;;;;6275689;28;20423;-75
2022/07/11 04:22:05;;;;;;;1.83;1.20;;;;;;;;;;6273269;28;20263;-70
2022/07/11 04:25:08;;;;;;;3.13;1.10;;;;;;;;;;6285522;28;20102;-71
2022/07/11 04:28:11;;;;;;;2.22;1.50;;;;;;;;;;6281142;28;20080;-71
2022/07/11 04:31:13;;;;;;;2.13;0.98;;;;;;;;;;6285158;28;20197;-70
2022/07/11 04:34:15;;;;;;;4.30;1.23;;;;;;;;;;6283874;28;20063;-71
2022/07/11 04:37:17;;;;;;;4.15;1.20;;;;;;;;;;6282738;28;20052;-70
2022/07/11 04:40:20;;;;;;;2.25;1.38;;;;;;;;;;6283547;28;20045;-70
2022/07/11 04:43:23;;;;;;;2.60;1.40;;;;;;;;;;6279401;28;20049;-70
2022/07/11 04:46:25;;;;;;;2.42;1.17;;;;;;;;;;6280018;28;20095;-70
2022/07/11 04:49:26;;;;;;;7.05;1.30;;;;;;;;;;6280294;28;20508;-70
2022/07/11 04:52:28;;;;;;;5.70;1.45;;;;;;;;;;6274361;28;20048;-71
2022/07/11 04:55:30;;;;;;;3.70;1.40;;;;;;;;;;6281794;28;20075;-71
2022/07/11 04:58:33;;;;;;;7.40;1.48;;;;;;;;;;6282265;28;20060;-70
2022/07/11 05:01:34;;;;;;;4.93;1.40;;;;;;;;;;6275104;28;20252;-71
2022/07/11 05:04:36;;;;;;;2.65;1.38;;;;;;;;;;6273429;28;20051;-70
2022/07/11 05:07:38;;;;;;;3.53;1.23;;;;;;;;;;6281569;28;20053;-71
2022/07/11 05:10:40;;;;;;;2.88;1.10;;;;;;;;;;6286454;28;20338;-72
2022/07/11 05:13:43;;;;;;;4.90;1.33;;;;;;;;;;6287043;28;20053;-71
2022/07/11 05:16:44;;;;;;;5.20;1.58;;;;;;;;;;6279757;28;20328;-71
2022/07/11 05:19:46;;;;;;;3.47;1.30;;;;;;;;;;6281381;28;20046;-71
2022/07/11 05:22:48;;;;;;;5.22;1.33;;;;;;;;;;6282661;28;20048;-70
2022/07/11 05:25:49;;;;;;;9.00;1.30;;;;;;;;;;6283025;28;20329;-74
2022/07/11 05:28:53;;;;;;;3.83;1.42;;;;;;;;;;6281216;28;20049;-70
2022/07/11 05:31:54;;;;;;;8.60;1.63;;;;;;;;;;6282027;28;20237;-71
2022/07/11 05:34:56;;;;;;;3.50;1.30;;;;;;;;;;6282783;28;20067;-71
2022/07/11 05:37:58;;;;;;;2.47;1.30;;;;;;;;;;6285524;28;20064;-71
2022/07/11 05:41:00;;;;;;;6.20;1.50;;;;;;;;;;6284324;28;20063;-72
2022/07/11 05:44:03;;;;;;;3.50;1.40;;;;;;;;;;6282317;28;20224;-72
2022/07/11 05:47:05;;;;;;;3.67;1.52;;;;;;;;;;6283338;28;20306;-73
2022/07/11 05:50:08;;;;;;;5.18;1.50;;;;;;;;;;6277534;28;20057;-72
2022/07/11 05:53:11;;;;;;;5.30;2.00;;;;;;;;;;6284752;28;20589;-72
2022/07/11 05:56:12;;;;;;;5.53;1.33;;;;;;;;;;6278165;28;20133;-72
2022/07/11 05:59:15;;;;;;;5.22;1.40;;;;;;;;;;6282279;28;20080;-73
2022/07/11 06:02:18;;;;;;;5.97;1.45;;;;;;;;;;6287546;28;20208;-74
2022/07/11 06:05:20;;;;;;;6.90;1.70;;;;;;;;;;6284284;28;20108;-78
2022/07/11 06:11:41;;;;;;;4.53;1.40;;;;;;;;;;6283808;28;20064;-77
2022/07/11 06:14:44;;;;;;;2.58;1.17;;;;;;;;;;6283187;28;20045;-89
2022/07/11 06:17:46;;;;;;;5.95;1.73;;;;;;;;;;6281664;28;20055;-78
2022/07/11 06:20:47;;;;;;;3.60;1.40;;;;;;;;;;6282386;28;20059;-76
2022/07/11 06:23:49;;;;;;;5.55;1.45;;;;;;;;;;6289646;28;20049;-77
2022/07/11 06:26:52;;;;;;;3.22;1.45;;;;;;;;;;6284053;28;20061;-76
2022/07/11 06:29:55;;;;;;;4.05;1.45;;;;;;;;;;6279112;28;20049;-78
2022/07/11 06:32:57;;;;;;;4.30;1.73;;;;;;;;;;6280972;28;20045;-75
2022/07/11 06:35:58;;;;;;;2.75;1.60;;;;;;;;;;6285091;28;20367;-77
2022/07/11 06:39:00;;;;;;;2.35;1.60;;;;;;;;;;6282656;28;20057;-78
2022/07/11 06:42:02;;;;;;;5.15;1.38;;;;;;;;;;6280556;28;20098;-75
2022/07/11 06:45:06;;;;;;;5.22;1.50;;;;;;;;;;6279751;28;20370;-77
2022/07/11 06:48:08;;;;;;;2.85;1.35;;;;;;;;;;6277438;28;20231;-76
2022/07/11 06:51:10;;;;;;;3.08;1.30;;;;;;;;;;6275771;28;20057;-78
2022/07/11 06:54:11;;;;;;;5.07;1.55;;;;;;;;;;6284711;28;20294;-75
2022/07/11 06:57:13;;;;;;;4.47;1.30;;;;;;;;;;6276991;28;20617;-82
2022/07/11 07:00:17;;;;;;;3.88;1.30;;;;;;;;;;6279351;28;20366;-78
2022/07/11 07:03:20;;;;;;;5.03;1.40;;;;;;;;;;6280386;28;20045;-79
2022/07/11 07:06:21;;;;;;;8.77;1.48;;;;;;;;;;6278583;28;20065;-83
2022/07/11 07:09:23;;;;;;;4.15;1.40;;;;;;;;;;6285224;28;20049;-77
2022/07/11 07:12:25;;;;;;;5.55;1.60;;;;;;;;;;6274843;28;20083;-77
2022/07/11 07:15:28;;;;;;;4.80;1.70;;;;;;;;;;6283398;28;20126;-78
2022/07/11 07:18:30;;;;;;;6.72;1.95;;;;;;;;;;6280402;28;20239;-78
2022/07/11 07:21:32;;;;;;;4.00;1.13;;;;;;;;;;6278496;28;20053;-78
2022/07/11 07:24:33;;;;;;;3.80;1.30;;;;;;;;;;6277265;28;20052;-76
2022/07/11 07:27:35;;;;;;;3.92;1.42;;;;;;;;;;6277207;28;20048;-77
2022/07/11 07:30:38;;;;;;;3.42;1.50;;;;;;;;;;6278398;28;20236;-77
2022/07/11 07:33:40;;;;;;;1.67;1.10;;;;;;;;;;6278172;28;20049;-78
2022/07/11 07:36:41;;;;;;;3.13;1.27;;;;;;;;;;6276019;28;20053;-77
2022/07/11 07:39:43;;;;;;;3.72;1.63;;;;;;;;;;6274789;28;20044;-84
2022/07/11 07:42:45;;;;;;;4.05;1.40;;;;;;;;;;6275970;28;20071;-79
2022/07/11 07:45:48;;;;;;;7.97;1.60;;;;;;;;;;6275077;28;20324;-78
2022/07/11 07:48:50;;;;;;;3.22;1.65;;;;;;;;;;6273469;28;20278;-79
2022/07/11 07:51:51;;;;;;;3.05;1.70;;;;;;;;;;6274196;28;20063;-76
2022/07/11 07:54:53;;;;;;;4.30;2.00;;;;;;;;;;6272063;28;20060;-79
2022/07/11 07:57:55;;;;;;;4.93;1.85;;;;;;;;;;6269258;28;20048;-78
2022/07/11 08:04:17;;;;;;;2.47;1.63;;;;;;;;;;6271584;28;20052;-76
2022/07/11 08:07:19;;;;;;;6.05;1.58;;;;;;;;;;6267763;28;20069;-78
2022/07/11 08:10:21;;;;;;;5.75;1.38;;;;;;;;;;6271342;28;20044;-77
2022/07/11 08:13:22;;;;;;;7.93;3.00;;;;;;;;;;6271053;28;20053;-82
2022/07/11 08:16:25;;;;;;;6.05;1.38;;;;;;;;;;6270445;28;20103;-79
2022/07/11 08:19:28;;;;;;;;;;;;;;;;;;6268621;28;20056;-79
2022/07/11 08:22:30;;;;;;;4.17;1.47;;;;;;;;;;6272435;28;19956;-79
2022/07/11 08:25:31;;;;;;;2.70;1.20;;;;;;;;;;6271383;28;20053;-78
2022/07/11 08:28:33;;;;;;;2.00;1.23;;;;;;;;;;6268563;28;20052;-77
2022/07/11 08:31:36;;;;;;;3.67;1.55;;;;;;;;;;6268334;28;20060;-83
2022/07/11 08:34:38;;;;;;;6.50;1.70;;;;;;;;;;6264067;28;20094;-81
2022/07/11 08:37:39;;;;;;;3.63;1.30;;;;;;;;;;6272862;28;20256;-79
2022/07/11 08:40:42;;;;;;;2.80;1.30;;;;;;;;;;6277238;28;20370;-80
2022/07/11 08:43:44;;;;;;;;;;;;;;;;;;6278890;28;20722;-80
2022/07/11 08:46:47;;;;;;;3.08;1.58;;;;;;;;;;6273768;28;20204;-81
2022/07/11 08:49:49;;;;;;;2.75;1.67;;;;;;;;;;6275705;28;20064;-83
2022/07/11 08:52:51;;;;;;;4.90;1.20;;;;;;;;;;6275968;28;21104;-85
2022/07/11 08:55:53;;;;;;;2.85;1.20;;;;;;;;;;6273964;28;20056;-77
2022/07/11 08:58:56;;;;;;;6.27;1.40;;;;;;;;;;6272487;28;20052;-81
2022/07/11 09:02:03;;;;;;;4.05;1.30;;;;;;;;;;6274040;28;20091;-81
2022/07/11 09:05:05;;;;;;;4.57;1.40;;;;;;;;;;6273739;28;20084;-82
2022/07/11 09:08:07;;;;;;;5.60;1.40;;;;;;;;;;6274319;28;20052;-80
2022/07/11 09:11:09;;;;;;;3.33;1.30;;;;;;;;;;6273484;28;20048;-80
2022/07/11 09:14:14;;;;;;;4.47;1.58;;;;;;;;;;6277912;28;20298;-77
2022/07/11 09:17:25;;;;;;;2.13;1.20;;;;;;;;;;6275731;28;20052;-79
2022/07/11 09:25:19;;;;;;;2.05;1.27;;;;;;;;;;6274582;28;20084;-81
2022/07/11 09:27:12;;;;;;;3.00;1.40;;;;;;;;;;6276355;28;20355;-81
2022/07/11 09:30:22;;;;;;;2.97;1.40;;;;;;;;;;6272997;28;20060;-79
2022/07/11 09:33:26;;;;;;;4.28;1.40;;;;;;;;;;6274738;28;20057;-78
2022/07/11 09:36:42;;;;;;;4.00;1.40;;;;;;;;;;6275252;28;20057;-76
2022/07/11 09:39:44;;;;;;;4.03;2.17;;;;;;;;;;6273892;28;20083;-79
2022/07/11 09:42:50;;;;;;;3.78;1.50;;;;;;;;;;6273566;28;20057;-80
2022/07/11 09:45:52;;;;;;;3.72;1.33;;;;;;;;;;6279459;28;20067;-79
2022/07/11 09:48:55;;;;;;;4.90;1.40;;;;;;;;;;6269568;28;20348;-80
2022/07/11 09:52:07;;;;;;;5.35;1.50;;;;;;;;;;6280528;28;20678;-82
2022/07/11 09:55:09;;;;;;;5.43;1.40;;;;;;;;;;6274849;28;20052;-78
2022/07/11 09:58:13;;;;;;;4.15;1.20;;;;;;;;;;6272444;28;20475;-79
2022/07/11 10:01:16;;;;;;;4.07;1.40;;;;;;;;;;6276198;28;20370;-77
2022/07/11 10:04:19;;;;;;;2.83;1.20;;;;;;;;;;6274008;28;20131;-80
2022/07/11 10:07:21;;;;;;;2.55;1.20;;;;;;;;;;6275201;28;20091;-78
2022/07/11 10:10:23;;;;;;;4.53;1.13;;;;;;;;;;6272942;28;20045;-78
2022/07/11 10:13:25;;;;;;;4.18;1.35;;;;;;;;;;6277672;28;20090;-82
2022/07/11 10:16:35;;;;;;;2.20;1.42;;;;;;;;;;6273804;28;20052;-77
2022/07/11 10:19:45;;;;;;;3.90;1.58;;;;;;;;;;6272406;28;20102;-78
2022/07/11 10:22:51;;;;;;;6.35;1.60;;;;;;;;;;6271381;28;20124;-82
2022/07/11 10:25:57;;;;;;;1.80;1.20;;;;;;;;;;6274541;28;20313;-79
2022/07/11 10:29:03;;;;;;;2.53;1.30;;;;;;;;;;6273367;28;20052;-79
2022/07/11 10:32:07;;;;;;;4.40;1.77;;;;;;;;;;6270405;28;20061;-81
2022/07/11 10:35:11;;;;;;;6.63;1.60;;;;;;;;;;6272906;28;20098;-81
2022/07/11 10:38:14;;;;;;;2.33;1.35;;;;;;;;;;6274899;28;20068;-79
2022/07/11 10:41:22;;;;;;;2.13;1.20;;;;;;;;;;6273535;28;20123;-77
2022/07/11 10:44:24;;;;;;;2.42;1.20;;;;;;;;;;6272897;28;20104;-77
2022/07/11 10:47:38;;;;;;;5.07;1.30;;;;;;;;;;6273973;28;20323;-78
2022/07/11 10:50:41;;;;;;;4.30;1.65;;;;;;;;;;6274116;28;20080;-84
2022/07/11 10:53:47;;;;;;;4.00;1.30;;;;;;;;;;6275863;28;20209;-77
2022/07/11 10:57:01;;;;;;;2.63;1.50;;;;;;;;;;6284351;28;20275;-79
2022/07/11 11:00:05;;;;;;;5.45;1.42;;;;;;;;;;6282188;28;20052;-76
2022/07/11 11:03:08;;;;;;;2.40;1.25;;;;;;;;;;6277952;28;20044;-82
2022/07/11 11:06:12;;;;;;;3.05;1.10;;;;;;;;;;6277516;28;20047;-83
2022/07/11 11:09:37;;;;;;;4.28;1.40;;;;;;;;;;6273090;28;20293;-77
2022/07/11 11:13:10;;;;;;;2.65;1.30;;;;;;;;;;6273880;28;20055;-80
2022/07/11 11:16:19;;;;;;;2.60;1.55;;;;;;;;;;6270683;28;20112;-77
2022/07/11 11:19:55;;;;;;;13.00;9.90;;;;;;;;;;6272628;28;20240;-80
2022/07/11 11:23:10;;;;;;;4.47;1.70;;;;;;;;;;6270072;28;20106;-79
2022/07/11 11:26:13;;;;;;;4.10;1.25;;;;;;;;;;6272218;28;20126;-76
2022/07/11 11:29:20;;;;;;;2.50;1.35;;;;;;;;;;6271369;28;20053;-79
2022/07/11 11:32:22;;;;;;;2.70;1.20;;;;;;;;;;6271266;28;20057;-78
2022/07/11 11:35:24;;;;;;;2.90;1.45;;;;;;;;;;6273284;28;20048;-81
2022/07/11 11:38:27;;;;;;;3.25;1.27;;;;;;;;;;6270660;28;20091;-79
2022/07/11 11:41:32;;;;;;;2.13;1.38;;;;;;;;;;6270731;28;20051;-73
2022/07/11 11:44:33;;;;;;;1.45;0.90;;;;;;;;;;6266198;28;20116;-76
2022/07/11 11:47:37;;;;;;;10.80;2.00;;;;;;;;;;6265170;28;20678;-75
2022/07/11 11:50:39;;;;;;;4.07;1.30;;;;;;;;;;6265473;28;20057;-75
2022/07/11 11:53:43;;;;;;;7.82;1.60;;;;;;;;;;6264275;28;20057;-81
2022/07/11 11:56:45;;;;;;;6.43;1.17;;;;;;;;;;6265144;28;20055;-81
2022/07/11 11:59:47;;;;;;;2.08;1.17;;;;;;;;;;6266022;28;20094;-74
2022/07/11 12:02:49;;;;;;;2.00;1.20;;;;;;;;;;6260508;28;20061;-83
2022/07/11 12:05:54;;;;;;;;;;;;;;;;;;6263693;28;20049;-75
2022/07/11 12:09:01;;;;;;;4.20;1.63;;;;;;;;;;6272030;28;19924;-76
2022/07/11 12:15:31;;;;;;;3.30;1.20;;;;;;;;;;6260618;28;20060;-75
2022/07/11 12:18:37;;;;;;;2.85;1.25;;;;;;;;;;6268421;28;20138;-76
2022/07/11 12:21:39;;;;;;;4.55;1.40;;;;;;;;;;6275512;28;20049;-74
2022/07/11 12:24:47;;;;;;;3.30;1.10;;;;;;;;;;6273986;28;20697;-74
2022/07/11 12:27:56;;;;;;;1.92;1.40;;;;;;;;;;6271014;28;20057;-76
2022/07/11 12:30:58;;;;;;;6.10;1.40;;;;;;;;;;6274020;28;20148;-75
2022/07/11 12:34:00;;;;;;;;;;;;;;;;;;6270786;28;20080;-78
2022/07/11 12:37:02;;;;;;;;;;;;;;;;;;6273601;28;19932;-74
2022/07/11 12:40:07;;;;;;;3.13;1.50;;;;;;;;;;6279276;28;20222;-73
2022/07/11 12:44:57;;;;;;;1.58;1.30;;;;;;;;;;6275804;28;20189;-74
2022/07/11 12:46:30;;;;;;;2.35;1.23;;;;;;;;;;6277045;28;20289;-73
2022/07/11 12:49:33;;;;;;;2.38;1.30;;;;;;;;;;6274764;28;20107;-74
2022/07/11 12:52:37;;;;;;;3.08;1.42;;;;;;;;;;6274638;28;20045;-74
2022/07/11 12:55:42;;;;;;;2.47;1.60;;;;;;;;;;6274178;28;20104;-73
2022/07/11 12:58:43;;;;;;;2.95;1.38;;;;;;;;;;6277339;28;20041;-74
2022/07/11 13:01:55;;;;;;;2.08;1.30;;;;;;;;;;6272025;28;20057;-79
2022/07/11 13:04:57;;;;;;;2.55;1.20;;;;;;;;;;6268639;28;20060;-77
2022/07/11 13:11:20;;;;;;;2.50;1.15;;;;;;;;;;6269006;28;20053;-81
2022/07/11 13:17:43;;;;;;;3.35;1.30;;;;;;;;;;6270248;28;20675;-73
2022/07/11 13:20:44;;;;;;;3.22;1.58;;;;;;;;;;6267613;28;20057;-75
2022/07/11 13:23:46;;;;;;;3.10;1.33;;;;;;;;;;6272015;28;20335;-73
2022/07/11 13:26:49;;;;;;;;;;;;;;;;;;6279875;28;20041;-72
2022/07/11 13:29:51;;;;;;;1.88;1.30;;;;;;;;;;6275617;28;19988;-74
2022/07/11 13:32:52;;;;;;;1.38;1.10;;;;;;;;;;6282795;28;20053;-74
2022/07/11 13:35:56;;;;;;;3.40;1.17;;;;;;;;;;6280973;28;20896;-77
2022/07/11 13:38:57;;;;;;;4.57;1.48;;;;;;;;;;6277986;28;20095;-74
2022/07/11 13:42:00;;;;;;;;;;;;;;;;;;6275493;28;20057;-76
2022/07/11 13:45:02;;;;;;;1.83;1.23;;;;;;;;;;6272712;28;20223;-76
2022/07/11 13:48:05;;;;;;;2.17;1.38;;;;;;;;;;6271230;28;20060;-74
2022/07/11 13:51:06;;;;;;;3.67;1.55;;;;;;;;;;6274677;28;20040;-78
2022/07/11 13:54:08;;;;;;;;;;;;;;;;;;6270907;28;20542;-76
2022/07/11 13:57:11;;;;;;;2.80;1.53;;;;;;;;;;6273902;28;19921;-82
2022/07/11 14:00:13;;;;;;;3.00;1.60;;;;;;;;;;6272510;28;20087;-75
2022/07/11 14:03:15;;;;;;;3.42;1.70;;;;;;;;;;6272371;28;20083;-74
2022/07/11 14:06:17;;;;;;;3.45;1.38;;;;;;;;;;6272276;28;20057;-74
2022/07/11 14:09:18;;;;;;;3.03;1.45;;;;;;;;;;6272640;28;20044;-75
2022/07/11 14:12:21;;;;;;;3.53;1.60;;;;;;;;;;6272005;28;20442;-78
2022/07/11 14:15:24;;;;;;;3.42;1.50;;;;;;;;;;6268836;28;20060;-79
2022/07/11 14:18:26;;;;;;;3.13;1.70;;;;;;;;;;6268871;28;20474;-74
2022/07/11 14:21:28;;;;;;;;;;;;;;;;;;6273205;28;20060;-74
2022/07/11 14:24:29;;;;;;;2.58;1.25;;;;;;;;;;6268414;28;19925;-74
2022/07/11 14:27:32;;;;;;;2.25;1.27;;;;;;;;;;6273431;28;20049;-74
2022/07/11 14:30:34;;;;;;;2.50;1.20;;;;;;;;;;6264039;28;20044;-77
2022/07/11 14:33:36;;;;;;;2.78;1.25;;;;;;;;;;6270007;28;20049;-74
2022/07/11 14:36:37;;;;;;;5.03;1.80;;;;;;;;;;6276208;28;20575;-76
2022/07/11 14:39:39;;;;;;;3.17;1.75;;;;;;;;;;6268222;28;20045;-78
2022/07/11 14:42:42;;;;;;;2.85;1.50;;;;;;;;;;6269503;28;20056;-76
2022/07/11 14:45:44;;;;;;;4.68;1.70;;;;;;;;;;6271286;28;20053;-74
2022/07/11 14:48:46;;;;;;;2.10;1.48;;;;;;;;;;6264961;28;20340;-81
2022/07/11 14:51:48;;;;;;;4.80;1.30;;;;;;;;;;6270028;28;20134;-77
2022/07/11 14:54:49;;;;;;;6.40;1.58;;;;;;;;;;6273048;28;20672;-81
2022/07/11 14:57:53;;;;;;;2.17;1.70;;;;;;;;;;6270826;28;20048;-86
2022/07/11 15:00:55;;;;;;;3.10;1.33;;;;;;;;;;6273522;28;20666;-85
2022/07/11 15:03:57;;;;;;;5.30;1.88;;;;;;;;;;6269455;28;20057;-80
2022/07/11 15:13:38;;;;;;;3.17;1.55;;;;;;;;;;6270407;28;20857;-74
2022/07/11 15:16:39;;;;;;;3.33;1.40;;;;;;;;;;6269913;28;20049;-74
2022/07/11 15:19:41;;;;;;;4.93;1.75;;;;;;;;;;6269622;28;20049;-73
2022/07/11 15:22:43;;;;;;;2.40;1.60;;;;;;;;;;6270408;28;20056;-73
2022/07/11 15:25:44;;;;;;;3.97;1.90;;;;;;;;;;6271023;28;20052;-74
2022/07/11 15:28:47;;;;;;;5.40;1.50;;;;;;;;;;6265994;28;20055;-74
2022/07/11 15:31:49;;;;;;;2.90;1.65;;;;;;;;;;6272112;28;20061;-74
2022/07/11 15:34:51;;;;;;;4.40;1.80;;;;;;;;;;6270320;28;20056;-74
2022/07/11 15:37:53;;;;;;;3.17;1.73;;;;;;;;;;6273344;28;20051;-73
2022/07/11 15:40:55;;;;;;;4.10;1.70;;;;;;;;;;6272103;28;20111;-73
2022/07/11 15:43:58;;;;;;;5.32;2.03;;;;;;;;;;6269360;28;20064;-72
2022/07/11 15:47:00;;;;;;;4.25;2.10;;;;;;;;;;6275453;28;20053;-72
2022/07/11 15:50:02;;;;;;;4.07;1.75;;;;;;;;;;6270884;28;20236;-76
2022/07/11 15:53:03;;;;;;;4.22;1.90;;;;;;;;;;6269287;28;21254;-74
2022/07/11 15:56:06;;;;;;;3.03;1.80;;;;;;;;;;6271370;28;20045;-74
2022/07/11 15:59:09;;;;;;;3.63;1.80;;;;;;;;;;6268139;28;20287;-73
2022/07/11 16:02:11;;;;;;;3.83;1.80;;;;;;;;;;6268296;28;20135;-73
2022/07/11 16:05:12;;;;;;;4.43;2.33;;;;;;;;;;6265012;28;20348;-82
2022/07/11 16:08:15;;;;;;;5.57;1.70;;;;;;;;;;6268597;28;20068;-75
2022/07/11 16:11:16;;;;;;;3.80;2.03;;;;;;;;;;6268360;28;20144;-81
2022/07/11 16:14:19;;;;;;;3.00;1.60;;;;;;;;;;6267255;28;20060;-76
2022/07/11 16:17:21;;;;;;;3.17;1.50;;;;;;;;;;6265700;28;20060;-77
2022/07/11 16:20:23;;;;;;;3.50;2.00;;;;;;;;;;6265306;28;20064;-74
2022/07/11 16:23:25;;;;;;;3.90;1.85;;;;;;;;;;6266170;28;20324;-78
2022/07/11 16:26:27;;;;;;;2.83;1.77;;;;;;;;;;6269753;28;20422;-86
2022/07/11 16:29:30;;;;;;;11.67;1.70;;;;;;;;;;6268348;28;20320;-85
2022/07/11 16:32:32;;;;;;;2.83;1.58;;;;;;;;;;6272531;28;20064;-85
2022/07/11 16:35:34;;;;;;;2.95;1.58;;;;;;;;;;6268735;28;20056;-85
2022/07/11 16:38:36;;;;;;;5.95;1.95;;;;;;;;;;6267077;28;20285;-87
2022/07/11 16:44:58;;;;;;;3.85;1.80;;;;;;;;;;6268700;28;20048;-81
2022/07/11 16:48:00;;;;;;;5.97;1.90;;;;;;;;;;6268136;28;20056;-78
2022/07/11 16:51:02;;;;;;;2.38;1.48;;;;;;;;;;6269919;28;20116;-73
2022/07/11 16:54:04;;;;;;;2.00;1.77;;;;;;;;;;6265683;28;20068;-77
2022/07/11 16:57:06;;;;;;;4.67;2.20;;;;;;;;;;6269046;28;20055;-79
2022/07/11 17:00:11;;;;;;;3.17;1.67;;;;;;;;;;6268868;28;20668;-73
2022/07/11 17:03:12;;;;;;;3.38;1.50;;;;;;;;;;6268854;28;20061;-81
2022/07/11 17:06:14;;;;;;;4.15;1.60;;;;;;;;;;6274982;28;20057;-74
2022/07/11 17:09:16;;;;;;;6.63;2.10;;;;;;;;;;6269907;28;20060;-73
2022/07/11 17:12:17;;;;;;;4.50;1.70;;;;;;;;;;6274041;28;20063;-72
2022/07/11 17:15:21;;;;;;;4.55;1.90;;;;;;;;;;6276881;28;20080;-73
2022/07/11 17:18:23;;;;;;;3.42;2.00;;;;;;;;;;6270852;28;20056;-75
2022/07/11 17:21:25;;;;;;;3.20;1.70;;;;;;;;;;6275570;28;20120;-78
2022/07/11 17:24:26;;;;;;;6.93;2.00;;;;;;;;;;6272125;28;20128;-74
2022/07/11 17:27:28;;;;;;;3.60;1.77;;;;;;;;;;6277758;28;20045;-74
2022/07/11 17:30:31;;;;;;;4.40;1.58;;;;;;;;;;6279756;28;20056;-74
2022/07/11 17:33:33;;;;;;;3.05;1.60;;;;;;;;;;6275857;28;20198;-73
2022/07/11 17:36:35;;;;;;;3.35;1.58;;;;;;;;;;6275042;28;20044;-78
2022/07/11 17:39:37;;;;;;;4.60;1.43;;;;;;;;;;6273649;28;20175;-76
2022/07/11 17:42:38;;;;;;;7.43;1.73;;;;;;;;;;6277248;28;20053;-77
2022/07/11 17:45:43;;;;;;;4.13;1.83;;;;;;;;;;6274962;28;20057;-76
2022/07/11 17:48:44;;;;;;;3.95;1.40;;;;;;;;;;6277486;28;20055;-73
2022/07/11 17:51:47;;;;;;;4.20;1.92;;;;;;;;;;6275128;28;20045;-76
2022/07/11 17:54:48;;;;;;;2.85;1.67;;;;;;;;;;6275776;28;20095;-75
2022/07/11 17:57:50;;;;;;;2.83;1.65;;;;;;;;;;6273965;28;20064;-78
2022/07/11 18:00:53;;;;;;;4.43;2.13;;;;;;;;;;6273219;28;20059;-73
2022/07/11 18:03:56;;;;;;;3.67;1.60;;;;;;;;;;6271931;28;20339;-75
2022/07/11 18:06:58;;;;;;;5.70;1.95;;;;;;;;;;6275935;28;20044;-76
2022/07/11 18:09:59;;;;;;;3.88;1.90;;;;;;;;;;6278002;28;20425;-75
2022/07/11 18:13:01;;;;;;;2.33;1.50;;;;;;;;;;6277999;28;20053;-82
2022/07/11 18:16:05;;;;;;;10.50;2.28;;;;;;;;;;6273270;28;20053;-76
2022/07/11 18:19:07;;;;;;;2.97;1.70;;;;;;;;;;6275054;28;20052;-78
2022/07/11 18:22:08;;;;;;;3.92;1.60;;;;;;;;;;6273527;28;20259;-73
2022/07/11 18:25:11;;;;;;;3.17;2.10;;;;;;;;;;6271687;28;20048;-80
2022/07/11 18:28:12;;;;;;;3.20;1.88;;;;;;;;;;6268723;28;20348;-74
2022/07/11 18:31:15;;;;;;;4.70;1.75;;;;;;;;;;6269980;28;20048;-73
2022/07/11 18:34:17;;;;;;;2.72;1.80;;;;;;;;;;6264447;28;20512;-80
2022/07/11 18:37:19;;;;;;;6.03;2.22;;;;;;;;;;6269380;28;20152;-78
2022/07/11 18:46:57;;;;;;;2.78;1.60;;;;;;;;;;6266528;28;20038;-84
2022/07/11 18:49:59;;;;;;;5.18;1.90;;;;;;;;;;6265543;28;20064;-82
2022/07/11 18:53:00;;;;;;;3.92;1.70;;;;;;;;;;6267189;28;20110;-80
2022/07/11 18:56:02;;;;;;;6.28;2.00;;;;;;;;;;6269271;28;20355;-80